sensor_id;sensor_type;location;lat;lon;timestamp;P1;durP1;ratioP1;P2;durP2;ratioP2
78368;SDS011;71113;43.092;-89.268;2023-12-28T00:01:24;9.20;;;3.58;;
78368;SDS011;71113;43.092;-89.268;2023-12-28T00:03:50;8.15;;;3.20;;
78368;SDS011;71113;43.092;-89.268;2023-12-28T00:06:16;8.65;;;3.13;;
78368;SDS011;71113;43.092;-89.268;2023-12-28T00:08:42;9.43;;;3.20;;
78368;SDS011;71113;43.092;-89.268;2023-12-28T00:11:08;9.70;;;3.00;;
78368;SDS011;71113;43.092;-89.268;2023-12-28T00:13:34;7.28;;;2.85;;
78368;SDS011;71113;43.092;-89.268;2023-12-28T00:16:00;6.32;;;2.60;;
78368;SDS011;71113;43.092;-89.268;2023-12-28T00:18:26;8.18;;;3.13;;
78368;SDS011;71113;43.092;-89.268;2023-12-28T00:20:52;8.65;;;2.78;;
78368;SDS011;71113;43.092;-89.268;2023-12-28T00:23:18;7.63;;;2.40;;
78368;SDS011;71113;43.092;-89.268;2023-12-28T00:25:47;6.95;;;2.55;;
78368;SDS011;71113;43.092;-89.268;2023-12-28T00:28:13;7.60;;;2.60;;
78368;SDS011;71113;43.092;-89.268;2023-12-28T00:30:39;6.38;;;2.22;;
78368;SDS011;71113;43.092;-89.268;2023-12-28T00:33:05;7.53;;;2.67;;
78368;SDS011;71113;43.092;-89.268;2023-12-28T00:35:30;6.90;;;3.03;;
78368;SDS011;71113;43.092;-89.268;2023-12-28T00:37:56;6.35;;;2.50;;
78368;SDS011;71113;43.092;-89.268;2023-12-28T00:40:22;4.70;;;2.30;;
78368;SDS011;71113;43.092;-89.268;2023-12-28T00:42:48;6.30;;;2.78;;
78368;SDS011;71113;43.092;-89.268;2023-12-28T00:45:14;5.43;;;2.38;;
78368;SDS011;71113;43.092;-89.268;2023-12-28T00:47:40;4.85;;;1.98;;
78368;SDS011;71113;43.092;-89.268;2023-12-28T00:50:08;6.50;;;2.40;;
78368;SDS011;71113;43.092;-89.268;2023-12-28T00:52:37;4.40;;;2.10;;
78368;SDS011;71113;43.092;-89.268;2023-12-28T00:55:04;4.78;;;2.22;;
78368;SDS011;71113;43.092;-89.268;2023-12-28T00:57:30;4.43;;;2.03;;
78368;SDS011;71113;43.092;-89.268;2023-12-28T00:59:56;4.72;;;2.10;;
78368;SDS011;71113;43.092;-89.268;2023-12-28T01:02:22;5.18;;;2.22;;
78368;SDS011;71113;43.092;-89.268;2023-12-28T01:04:47;5.45;;;2.30;;
78368;SDS011;71113;43.092;-89.268;2023-12-28T01:07:13;4.60;;;2.10;;
78368;SDS011;71113;43.092;-89.268;2023-12-28T01:09:39;5.00;;;1.92;;
78368;SDS011;71113;43.092;-89.268;2023-12-28T01:12:05;4.78;;;1.80;;
78368;SDS011;71113;43.092;-89.268;2023-12-28T01:14:32;3.55;;;1.80;;
78368;SDS011;71113;43.092;-89.268;2023-12-28T01:16:58;5.40;;;1.80;;
78368;SDS011;71113;43.092;-89.268;2023-12-28T01:19:24;4.43;;;1.83;;
78368;SDS011;71113;43.092;-89.268;2023-12-28T01:21:50;4.25;;;1.80;;
78368;SDS011;71113;43.092;-89.268;2023-12-28T01:24:16;4.57;;;2.00;;
78368;SDS011;71113;43.092;-89.268;2023-12-28T01:26:42;3.72;;;1.90;;
78368;SDS011;71113;43.092;-89.268;2023-12-28T01:29:08;4.60;;;1.80;;
78368;SDS011;71113;43.092;-89.268;2023-12-28T01:31:35;5.82;;;2.30;;
78368;SDS011;71113;43.092;-89.268;2023-12-28T01:34:01;5.03;;;1.75;;
78368;SDS011;71113;43.092;-89.268;2023-12-28T01:36:27;4.15;;;1.80;;
78368;SDS011;71113;43.092;-89.268;2023-12-28T01:38:54;4.35;;;1.75;;
78368;SDS011;71113;43.092;-89.268;2023-12-28T01:41:21;5.80;;;1.67;;
78368;SDS011;71113;43.092;-89.268;2023-12-28T01:43:47;3.00;;;1.63;;
78368;SDS011;71113;43.092;-89.268;2023-12-28T01:46:16;4.65;;;1.85;;
78368;SDS011;71113;43.092;-89.268;2023-12-28T01:51:11;4.07;;;1.73;;
78368;SDS011;71113;43.092;-89.268;2023-12-28T01:53:38;56.50;;;25.33;;
78368;SDS011;71113;43.092;-89.268;2023-12-28T01:56:05;106.72;;;44.83;;
78368;SDS011;71113;43.092;-89.268;2023-12-28T01:58:32;90.57;;;43.15;;
78368;SDS011;71113;43.092;-89.268;2023-12-28T02:01:00;91.80;;;40.40;;
78368;SDS011;71113;43.092;-89.268;2023-12-28T02:03:27;116.57;;;44.80;;
78368;SDS011;71113;43.092;-89.268;2023-12-28T02:05:53;129.82;;;49.05;;
78368;SDS011;71113;43.092;-89.268;2023-12-28T02:08:20;138.43;;;50.55;;
78368;SDS011;71113;43.092;-89.268;2023-12-28T02:10:46;137.52;;;49.33;;
78368;SDS011;71113;43.092;-89.268;2023-12-28T02:13:13;142.98;;;49.88;;
78368;SDS011;71113;43.092;-89.268;2023-12-28T02:15:39;124.72;;;44.95;;
78368;SDS011;71113;43.092;-89.268;2023-12-28T02:18:06;114.03;;;43.05;;
78368;SDS011;71113;43.092;-89.268;2023-12-28T02:20:38;118.10;;;41.67;;
78368;SDS011;71113;43.092;-89.268;2023-12-28T02:23:05;119.35;;;44.05;;
78368;SDS011;71113;43.092;-89.268;2023-12-28T02:25:32;108.40;;;40.58;;
78368;SDS011;71113;43.092;-89.268;2023-12-28T02:27:58;103.63;;;36.50;;
78368;SDS011;71113;43.092;-89.268;2023-12-28T02:30:24;100.90;;;37.42;;
78368;SDS011;71113;43.092;-89.268;2023-12-28T02:36:01;90.38;;;33.72;;
78368;SDS011;71113;43.092;-89.268;2023-12-28T02:38:32;90.47;;;34.65;;
78368;SDS011;71113;43.092;-89.268;2023-12-28T02:41:01;88.90;;;32.72;;
78368;SDS011;71113;43.092;-89.268;2023-12-28T02:43:28;90.40;;;32.85;;
78368;SDS011;71113;43.092;-89.268;2023-12-28T02:45:55;83.82;;;30.75;;
78368;SDS011;71113;43.092;-89.268;2023-12-28T02:48:21;67.30;;;25.80;;
78368;SDS011;71113;43.092;-89.268;2023-12-28T02:50:47;67.43;;;24.25;;
78368;SDS011;71113;43.092;-89.268;2023-12-28T02:53:13;57.78;;;21.17;;
78368;SDS011;71113;43.092;-89.268;2023-12-28T02:55:39;57.47;;;20.02;;
78368;SDS011;71113;43.092;-89.268;2023-12-28T02:58:05;52.88;;;19.52;;
78368;SDS011;71113;43.092;-89.268;2023-12-28T03:00:31;49.33;;;18.85;;
78368;SDS011;71113;43.092;-89.268;2023-12-28T03:02:57;50.60;;;18.25;;
78368;SDS011;71113;43.092;-89.268;2023-12-28T03:05:23;48.38;;;17.05;;
78368;SDS011;71113;43.092;-89.268;2023-12-28T03:07:49;50.25;;;18.13;;
78368;SDS011;71113;43.092;-89.268;2023-12-28T03:10:15;41.38;;;17.38;;
78368;SDS011;71113;43.092;-89.268;2023-12-28T03:12:41;50.20;;;17.92;;
78368;SDS011;71113;43.092;-89.268;2023-12-28T03:15:07;42.80;;;16.80;;
78368;SDS011;71113;43.092;-89.268;2023-12-28T03:17:33;50.78;;;17.00;;
78368;SDS011;71113;43.092;-89.268;2023-12-28T03:19:59;45.25;;;16.35;;
78368;SDS011;71113;43.092;-89.268;2023-12-28T03:22:25;42.00;;;16.73;;
78368;SDS011;71113;43.092;-89.268;2023-12-28T03:24:51;40.42;;;14.00;;
78368;SDS011;71113;43.092;-89.268;2023-12-28T03:27:17;41.60;;;15.27;;
78368;SDS011;71113;43.092;-89.268;2023-12-28T03:29:43;42.42;;;14.45;;
78368;SDS011;71113;43.092;-89.268;2023-12-28T03:32:10;40.00;;;14.02;;
78368;SDS011;71113;43.092;-89.268;2023-12-28T03:34:36;34.35;;;13.23;;
78368;SDS011;71113;43.092;-89.268;2023-12-28T03:37:02;32.15;;;12.68;;
78368;SDS011;71113;43.092;-89.268;2023-12-28T03:39:28;35.70;;;13.02;;
78368;SDS011;71113;43.092;-89.268;2023-12-28T03:41:54;28.63;;;13.15;;
78368;SDS011;71113;43.092;-89.268;2023-12-28T03:44:20;240.27;;;86.78;;
78368;SDS011;71113;43.092;-89.268;2023-12-28T03:46:50;85.40;;;39.42;;
78368;SDS011;71113;43.092;-89.268;2023-12-28T03:49:17;130.65;;;59.50;;
78368;SDS011;71113;43.092;-89.268;2023-12-28T03:51:43;149.75;;;63.45;;
78368;SDS011;71113;43.092;-89.268;2023-12-28T03:54:10;117.72;;;52.47;;
78368;SDS011;71113;43.092;-89.268;2023-12-28T03:56:36;135.25;;;55.20;;
78368;SDS011;71113;43.092;-89.268;2023-12-28T03:59:05;128.73;;;46.40;;
78368;SDS011;71113;43.092;-89.268;2023-12-28T04:01:32;90.40;;;36.25;;
78368;SDS011;71113;43.092;-89.268;2023-12-28T04:03:58;102.93;;;37.47;;
78368;SDS011;71113;43.092;-89.268;2023-12-28T04:06:24;100.53;;;35.25;;
78368;SDS011;71113;43.092;-89.268;2023-12-28T04:11:36;86.75;;;32.97;;
78368;SDS011;71113;43.092;-89.268;2023-12-28T04:14:03;85.30;;;31.20;;
78368;SDS011;71113;43.092;-89.268;2023-12-28T04:16:29;84.78;;;30.70;;
78368;SDS011;71113;43.092;-89.268;2023-12-28T04:18:55;85.25;;;30.88;;
78368;SDS011;71113;43.092;-89.268;2023-12-28T04:21:21;73.70;;;27.00;;
78368;SDS011;71113;43.092;-89.268;2023-12-28T04:23:47;73.50;;;26.77;;
78368;SDS011;71113;43.092;-89.268;2023-12-28T04:26:13;57.63;;;21.17;;
78368;SDS011;71113;43.092;-89.268;2023-12-28T04:28:39;49.33;;;19.45;;
78368;SDS011;71113;43.092;-89.268;2023-12-28T04:31:05;121.80;;;35.30;;
78368;SDS011;71113;43.092;-89.268;2023-12-28T04:33:32;59.70;;;20.85;;
78368;SDS011;71113;43.092;-89.268;2023-12-28T04:36:02;55.10;;;19.98;;
78368;SDS011;71113;43.092;-89.268;2023-12-28T04:38:29;54.22;;;18.15;;
78368;SDS011;71113;43.092;-89.268;2023-12-28T04:40:56;54.65;;;19.25;;
78368;SDS011;71113;43.092;-89.268;2023-12-28T04:43:23;50.78;;;17.20;;
78368;SDS011;71113;43.092;-89.268;2023-12-28T04:45:49;52.47;;;17.05;;
78368;SDS011;71113;43.092;-89.268;2023-12-28T04:48:16;42.85;;;15.25;;
78368;SDS011;71113;43.092;-89.268;2023-12-28T04:50:46;43.45;;;14.95;;
78368;SDS011;71113;43.092;-89.268;2023-12-28T04:53:13;41.72;;;15.40;;
78368;SDS011;71113;43.092;-89.268;2023-12-28T04:55:39;38.75;;;14.50;;
78368;SDS011;71113;43.092;-89.268;2023-12-28T04:58:05;37.78;;;13.35;;
78368;SDS011;71113;43.092;-89.268;2023-12-28T05:00:31;33.05;;;12.05;;
78368;SDS011;71113;43.092;-89.268;2023-12-28T05:02:57;31.30;;;11.05;;
78368;SDS011;71113;43.092;-89.268;2023-12-28T05:05:23;27.90;;;10.77;;
78368;SDS011;71113;43.092;-89.268;2023-12-28T05:07:48;29.13;;;10.70;;
78368;SDS011;71113;43.092;-89.268;2023-12-28T05:10:14;27.02;;;9.75;;
78368;SDS011;71113;43.092;-89.268;2023-12-28T05:12:40;27.90;;;9.85;;
78368;SDS011;71113;43.092;-89.268;2023-12-28T05:15:06;30.17;;;11.00;;
78368;SDS011;71113;43.092;-89.268;2023-12-28T05:17:32;27.63;;;10.43;;
78368;SDS011;71113;43.092;-89.268;2023-12-28T05:19:58;23.20;;;7.93;;
78368;SDS011;71113;43.092;-89.268;2023-12-28T05:22:24;24.60;;;9.13;;
78368;SDS011;71113;43.092;-89.268;2023-12-28T05:24:50;24.92;;;9.85;;
78368;SDS011;71113;43.092;-89.268;2023-12-28T05:27:16;22.27;;;8.70;;
78368;SDS011;71113;43.092;-89.268;2023-12-28T05:29:41;23.05;;;7.93;;
78368;SDS011;71113;43.092;-89.268;2023-12-28T05:32:07;23.17;;;8.40;;
78368;SDS011;71113;43.092;-89.268;2023-12-28T05:34:33;23.58;;;7.78;;
78368;SDS011;71113;43.092;-89.268;2023-12-28T05:36:59;19.42;;;7.85;;
78368;SDS011;71113;43.092;-89.268;2023-12-28T05:39:25;20.00;;;7.53;;
78368;SDS011;71113;43.092;-89.268;2023-12-28T05:41:51;18.33;;;6.72;;
78368;SDS011;71113;43.092;-89.268;2023-12-28T05:44:19;16.38;;;7.00;;
78368;SDS011;71113;43.092;-89.268;2023-12-28T05:46:46;17.92;;;6.93;;
78368;SDS011;71113;43.092;-89.268;2023-12-28T05:49:12;15.85;;;6.13;;
78368;SDS011;71113;43.092;-89.268;2023-12-28T05:51:41;16.05;;;6.10;;
78368;SDS011;71113;43.092;-89.268;2023-12-28T05:54:07;17.77;;;6.47;;
78368;SDS011;71113;43.092;-89.268;2023-12-28T05:56:34;12.57;;;6.13;;
78368;SDS011;71113;43.092;-89.268;2023-12-28T05:59:00;14.45;;;5.63;;
78368;SDS011;71113;43.092;-89.268;2023-12-28T06:01:26;11.93;;;4.82;;
78368;SDS011;71113;43.092;-89.268;2023-12-28T06:03:52;60.35;;;26.77;;
78368;SDS011;71113;43.092;-89.268;2023-12-28T06:06:19;76.78;;;31.10;;
78368;SDS011;71113;43.092;-89.268;2023-12-28T06:08:45;107.60;;;43.90;;
78368;SDS011;71113;43.092;-89.268;2023-12-28T06:11:12;170.20;;;66.72;;
78368;SDS011;71113;43.092;-89.268;2023-12-28T06:13:37;163.65;;;63.20;;
78368;SDS011;71113;43.092;-89.268;2023-12-28T06:16:03;154.50;;;56.22;;
78368;SDS011;71113;43.092;-89.268;2023-12-28T06:18:29;118.50;;;48.60;;
78368;SDS011;71113;43.092;-89.268;2023-12-28T06:20:56;124.85;;;47.80;;
78368;SDS011;71113;43.092;-89.268;2023-12-28T06:23:22;108.03;;;43.03;;
78368;SDS011;71113;43.092;-89.268;2023-12-28T06:25:48;100.97;;;37.97;;
78368;SDS011;71113;43.092;-89.268;2023-12-28T06:28:13;88.45;;;34.65;;
78368;SDS011;71113;43.092;-89.268;2023-12-28T06:30:39;93.80;;;35.67;;
78368;SDS011;71113;43.092;-89.268;2023-12-28T06:33:05;84.95;;;32.22;;
78368;SDS011;71113;43.092;-89.268;2023-12-28T06:35:31;84.53;;;30.27;;
78368;SDS011;71113;43.092;-89.268;2023-12-28T06:37:57;78.13;;;28.48;;
78368;SDS011;71113;43.092;-89.268;2023-12-28T06:40:23;66.13;;;24.73;;
78368;SDS011;71113;43.092;-89.268;2023-12-28T06:42:49;69.90;;;24.48;;
78368;SDS011;71113;43.092;-89.268;2023-12-28T06:45:15;83.82;;;25.60;;
78368;SDS011;71113;43.092;-89.268;2023-12-28T06:47:41;85.25;;;25.83;;
78368;SDS011;71113;43.092;-89.268;2023-12-28T06:50:07;72.05;;;22.35;;
78368;SDS011;71113;43.092;-89.268;2023-12-28T06:52:33;67.20;;;21.85;;
78368;SDS011;71113;43.092;-89.268;2023-12-28T06:54:59;63.72;;;19.98;;
78368;SDS011;71113;43.092;-89.268;2023-12-28T06:57:24;59.63;;;20.05;;
78368;SDS011;71113;43.092;-89.268;2023-12-28T06:59:50;52.28;;;17.13;;
78368;SDS011;71113;43.092;-89.268;2023-12-28T07:02:16;48.33;;;17.00;;
78368;SDS011;71113;43.092;-89.268;2023-12-28T07:04:42;44.60;;;15.77;;
78368;SDS011;71113;43.092;-89.268;2023-12-28T07:07:08;47.40;;;15.48;;
78368;SDS011;71113;43.092;-89.268;2023-12-28T07:09:34;46.55;;;15.18;;
78368;SDS011;71113;43.092;-89.268;2023-12-28T07:12:01;49.33;;;16.50;;
78368;SDS011;71113;43.092;-89.268;2023-12-28T07:14:27;45.22;;;15.50;;
78368;SDS011;71113;43.092;-89.268;2023-12-28T07:16:53;46.78;;;14.65;;
78368;SDS011;71113;43.092;-89.268;2023-12-28T07:19:21;35.88;;;13.50;;
78368;SDS011;71113;43.092;-89.268;2023-12-28T07:21:47;42.00;;;13.88;;
78368;SDS011;71113;43.092;-89.268;2023-12-28T07:24:13;40.10;;;13.90;;
78368;SDS011;71113;43.092;-89.268;2023-12-28T07:26:39;39.42;;;13.18;;
78368;SDS011;71113;43.092;-89.268;2023-12-28T07:29:05;33.60;;;11.73;;
78368;SDS011;71113;43.092;-89.268;2023-12-28T07:31:30;32.55;;;11.27;;
78368;SDS011;71113;43.092;-89.268;2023-12-28T07:33:57;34.13;;;11.60;;
78368;SDS011;71113;43.092;-89.268;2023-12-28T07:36:23;24.33;;;8.55;;
78368;SDS011;71113;43.092;-89.268;2023-12-28T07:38:48;25.02;;;8.90;;
78368;SDS011;71113;43.092;-89.268;2023-12-28T07:41:14;24.70;;;8.40;;
78368;SDS011;71113;43.092;-89.268;2023-12-28T07:43:40;21.13;;;8.00;;
78368;SDS011;71113;43.092;-89.268;2023-12-28T07:46:06;24.52;;;8.10;;
78368;SDS011;71113;43.092;-89.268;2023-12-28T07:48:32;19.13;;;6.78;;
78368;SDS011;71113;43.092;-89.268;2023-12-28T07:50:58;20.73;;;7.57;;
78368;SDS011;71113;43.092;-89.268;2023-12-28T07:53:24;19.08;;;7.20;;
78368;SDS011;71113;43.092;-89.268;2023-12-28T07:55:50;19.27;;;7.32;;
78368;SDS011;71113;43.092;-89.268;2023-12-28T07:58:15;19.13;;;6.53;;
78368;SDS011;71113;43.092;-89.268;2023-12-28T08:00:41;22.77;;;7.88;;
78368;SDS011;71113;43.092;-89.268;2023-12-28T08:03:07;18.08;;;7.22;;
78368;SDS011;71113;43.092;-89.268;2023-12-28T08:05:33;19.15;;;6.75;;
78368;SDS011;71113;43.092;-89.268;2023-12-28T08:07:59;19.95;;;7.00;;
78368;SDS011;71113;43.092;-89.268;2023-12-28T08:10:25;18.20;;;6.38;;
78368;SDS011;71113;43.092;-89.268;2023-12-28T08:12:51;17.58;;;6.38;;
78368;SDS011;71113;43.092;-89.268;2023-12-28T08:15:16;16.27;;;6.30;;
78368;SDS011;71113;43.092;-89.268;2023-12-28T08:17:42;17.10;;;6.32;;
78368;SDS011;71113;43.092;-89.268;2023-12-28T08:20:08;19.52;;;6.72;;
78368;SDS011;71113;43.092;-89.268;2023-12-28T08:22:34;17.25;;;6.80;;
78368;SDS011;71113;43.092;-89.268;2023-12-28T08:25:00;17.40;;;6.40;;
78368;SDS011;71113;43.092;-89.268;2023-12-28T08:27:26;17.42;;;6.18;;
78368;SDS011;71113;43.092;-89.268;2023-12-28T08:29:52;15.13;;;6.43;;
78368;SDS011;71113;43.092;-89.268;2023-12-28T08:32:17;14.80;;;5.60;;
78368;SDS011;71113;43.092;-89.268;2023-12-28T08:34:43;11.10;;;4.72;;
78368;SDS011;71113;43.092;-89.268;2023-12-28T08:37:10;11.95;;;5.32;;
78368;SDS011;71113;43.092;-89.268;2023-12-28T08:39:36;12.40;;;5.25;;
78368;SDS011;71113;43.092;-89.268;2023-12-28T08:42:02;15.30;;;5.45;;
78368;SDS011;71113;43.092;-89.268;2023-12-28T08:44:27;12.80;;;4.88;;
78368;SDS011;71113;43.092;-89.268;2023-12-28T08:46:53;12.73;;;4.75;;
78368;SDS011;71113;43.092;-89.268;2023-12-28T08:49:19;11.95;;;5.07;;
78368;SDS011;71113;43.092;-89.268;2023-12-28T08:51:47;13.45;;;4.93;;
78368;SDS011;71113;43.092;-89.268;2023-12-28T08:54:13;9.52;;;4.18;;
78368;SDS011;71113;43.092;-89.268;2023-12-28T08:56:39;11.32;;;4.30;;
78368;SDS011;71113;43.092;-89.268;2023-12-28T08:59:05;11.63;;;4.32;;
78368;SDS011;71113;43.092;-89.268;2023-12-28T09:01:31;11.07;;;3.92;;
78368;SDS011;71113;43.092;-89.268;2023-12-28T09:03:57;10.73;;;3.50;;
78368;SDS011;71113;43.092;-89.268;2023-12-28T09:06:24;10.65;;;3.97;;
78368;SDS011;71113;43.092;-89.268;2023-12-28T09:08:50;8.70;;;3.53;;
78368;SDS011;71113;43.092;-89.268;2023-12-28T09:11:17;7.50;;;2.88;;
78368;SDS011;71113;43.092;-89.268;2023-12-28T09:13:44;8.02;;;3.30;;
78368;SDS011;71113;43.092;-89.268;2023-12-28T09:16:11;8.63;;;3.65;;
78368;SDS011;71113;43.092;-89.268;2023-12-28T09:18:38;8.75;;;3.25;;
78368;SDS011;71113;43.092;-89.268;2023-12-28T09:21:04;8.85;;;3.33;;
78368;SDS011;71113;43.092;-89.268;2023-12-28T09:23:31;7.18;;;2.95;;
78368;SDS011;71113;43.092;-89.268;2023-12-28T09:26:01;7.82;;;2.95;;
78368;SDS011;71113;43.092;-89.268;2023-12-28T09:28:31;8.45;;;3.10;;
78368;SDS011;71113;43.092;-89.268;2023-12-28T09:30:58;7.85;;;2.97;;
78368;SDS011;71113;43.092;-89.268;2023-12-28T09:33:25;6.47;;;2.95;;
78368;SDS011;71113;43.092;-89.268;2023-12-28T09:35:50;6.97;;;3.10;;
78368;SDS011;71113;43.092;-89.268;2023-12-28T09:38:18;7.15;;;2.65;;
78368;SDS011;71113;43.092;-89.268;2023-12-28T09:40:45;5.53;;;2.50;;
78368;SDS011;71113;43.092;-89.268;2023-12-28T09:43:24;5.35;;;2.40;;
78368;SDS011;71113;43.092;-89.268;2023-12-28T09:45:51;6.65;;;2.83;;
78368;SDS011;71113;43.092;-89.268;2023-12-28T09:48:17;6.50;;;2.75;;
78368;SDS011;71113;43.092;-89.268;2023-12-28T09:50:45;6.90;;;2.67;;
78368;SDS011;71113;43.092;-89.268;2023-12-28T09:53:15;6.10;;;2.40;;
78368;SDS011;71113;43.092;-89.268;2023-12-28T09:55:42;5.70;;;2.53;;
78368;SDS011;71113;43.092;-89.268;2023-12-28T09:58:08;4.70;;;2.47;;
78368;SDS011;71113;43.092;-89.268;2023-12-28T10:00:37;6.47;;;2.47;;
78368;SDS011;71113;43.092;-89.268;2023-12-28T10:03:03;5.75;;;2.38;;
78368;SDS011;71113;43.092;-89.268;2023-12-28T10:05:29;4.88;;;2.20;;
78368;SDS011;71113;43.092;-89.268;2023-12-28T10:07:55;4.30;;;1.85;;
78368;SDS011;71113;43.092;-89.268;2023-12-28T10:10:22;5.68;;;2.30;;
78368;SDS011;71113;43.092;-89.268;2023-12-28T10:12:48;5.70;;;2.15;;
78368;SDS011;71113;43.092;-89.268;2023-12-28T10:15:14;3.75;;;1.95;;
78368;SDS011;71113;43.092;-89.268;2023-12-28T10:17:40;4.82;;;2.08;;
78368;SDS011;71113;43.092;-89.268;2023-12-28T10:20:06;5.68;;;2.30;;
78368;SDS011;71113;43.092;-89.268;2023-12-28T10:22:35;4.28;;;2.05;;
78368;SDS011;71113;43.092;-89.268;2023-12-28T10:25:02;3.97;;;1.75;;
78368;SDS011;71113;43.092;-89.268;2023-12-28T10:27:29;4.03;;;2.03;;
78368;SDS011;71113;43.092;-89.268;2023-12-28T10:29:55;4.80;;;1.70;;
78368;SDS011;71113;43.092;-89.268;2023-12-28T10:32:22;4.50;;;1.92;;
78368;SDS011;71113;43.092;-89.268;2023-12-28T10:34:52;4.85;;;1.98;;
78368;SDS011;71113;43.092;-89.268;2023-12-28T10:37:19;4.20;;;2.10;;
78368;SDS011;71113;43.092;-89.268;2023-12-28T10:40:07;4.45;;;2.38;;
78368;SDS011;71113;43.092;-89.268;2023-12-28T10:42:49;3.67;;;1.70;;
78368;SDS011;71113;43.092;-89.268;2023-12-28T10:47:47;3.80;;;1.80;;
78368;SDS011;71113;43.092;-89.268;2023-12-28T10:50:43;3.85;;;1.55;;
78368;SDS011;71113;43.092;-89.268;2023-12-28T11:01:12;2.50;;;1.50;;
78368;SDS011;71113;43.092;-89.268;2023-12-28T11:03:47;2.95;;;1.63;;
78368;SDS011;71113;43.092;-89.268;2023-12-28T11:06:23;2.63;;;1.50;;
78368;SDS011;71113;43.092;-89.268;2023-12-28T11:08:51;3.40;;;1.70;;
78368;SDS011;71113;43.092;-89.268;2023-12-28T11:11:19;2.50;;;1.23;;
78368;SDS011;71113;43.092;-89.268;2023-12-28T11:13:47;3.25;;;1.27;;
78368;SDS011;71113;43.092;-89.268;2023-12-28T11:16:15;3.25;;;1.40;;
78368;SDS011;71113;43.092;-89.268;2023-12-28T11:18:42;2.20;;;1.20;;
78368;SDS011;71113;43.092;-89.268;2023-12-28T11:21:08;2.90;;;1.40;;
78368;SDS011;71113;43.092;-89.268;2023-12-28T11:23:34;2.15;;;1.17;;
78368;SDS011;71113;43.092;-89.268;2023-12-28T11:26:00;2.10;;;1.15;;
78368;SDS011;71113;43.092;-89.268;2023-12-28T11:28:27;2.70;;;1.20;;
78368;SDS011;71113;43.092;-89.268;2023-12-28T11:30:53;1.45;;;0.95;;
78368;SDS011;71113;43.092;-89.268;2023-12-28T11:33:19;1.50;;;0.88;;
78368;SDS011;71113;43.092;-89.268;2023-12-28T11:35:47;1.45;;;0.85;;
78368;SDS011;71113;43.092;-89.268;2023-12-28T11:38:13;2.28;;;1.15;;
78368;SDS011;71113;43.092;-89.268;2023-12-28T11:40:41;2.17;;;1.13;;
78368;SDS011;71113;43.092;-89.268;2023-12-28T11:43:19;1.27;;;0.90;;
78368;SDS011;71113;43.092;-89.268;2023-12-28T11:45:49;1.33;;;0.80;;
78368;SDS011;71113;43.092;-89.268;2023-12-28T11:48:23;1.63;;;0.90;;
78368;SDS011;71113;43.092;-89.268;2023-12-28T11:50:52;1.88;;;0.88;;
78368;SDS011;71113;43.092;-89.268;2023-12-28T11:53:20;1.40;;;0.90;;
78368;SDS011;71113;43.092;-89.268;2023-12-28T11:55:46;1.73;;;0.95;;
78368;SDS011;71113;43.092;-89.268;2023-12-28T11:58:12;1.20;;;0.60;;
78368;SDS011;71113;43.092;-89.268;2023-12-28T12:00:39;1.30;;;0.80;;
78368;SDS011;71113;43.092;-89.268;2023-12-28T12:03:05;1.23;;;0.82;;
78368;SDS011;71113;43.092;-89.268;2023-12-28T12:05:34;1.20;;;0.75;;
78368;SDS011;71113;43.092;-89.268;2023-12-28T12:08:01;1.35;;;0.88;;
78368;SDS011;71113;43.092;-89.268;2023-12-28T12:10:27;1.63;;;1.02;;
78368;SDS011;71113;43.092;-89.268;2023-12-28T12:12:53;1.30;;;0.75;;
78368;SDS011;71113;43.092;-89.268;2023-12-28T12:15:19;1.40;;;0.80;;
78368;SDS011;71113;43.092;-89.268;2023-12-28T12:17:44;1.83;;;0.95;;
78368;SDS011;71113;43.092;-89.268;2023-12-28T12:20:10;1.73;;;0.90;;
78368;SDS011;71113;43.092;-89.268;2023-12-28T12:22:36;1.25;;;0.80;;
78368;SDS011;71113;43.092;-89.268;2023-12-28T12:25:03;1.33;;;0.80;;
78368;SDS011;71113;43.092;-89.268;2023-12-28T12:27:30;1.65;;;0.85;;
78368;SDS011;71113;43.092;-89.268;2023-12-28T12:29:56;2.08;;;0.85;;
78368;SDS011;71113;43.092;-89.268;2023-12-28T12:32:22;2.50;;;1.00;;
78368;SDS011;71113;43.092;-89.268;2023-12-28T12:34:49;2.17;;;1.08;;
78368;SDS011;71113;43.092;-89.268;2023-12-28T12:37:16;1.42;;;0.93;;
78368;SDS011;71113;43.092;-89.268;2023-12-28T12:39:42;2.03;;;1.10;;
78368;SDS011;71113;43.092;-89.268;2023-12-28T12:42:15;1.38;;;0.90;;
78368;SDS011;71113;43.092;-89.268;2023-12-28T12:44:42;1.70;;;0.95;;
78368;SDS011;71113;43.092;-89.268;2023-12-28T12:47:08;1.85;;;0.98;;
78368;SDS011;71113;43.092;-89.268;2023-12-28T12:49:34;1.88;;;1.02;;
78368;SDS011;71113;43.092;-89.268;2023-12-28T12:52:00;1.83;;;0.98;;
78368;SDS011;71113;43.092;-89.268;2023-12-28T12:54:26;1.98;;;1.00;;
78368;SDS011;71113;43.092;-89.268;2023-12-28T12:56:53;1.65;;;1.00;;
78368;SDS011;71113;43.092;-89.268;2023-12-28T12:59:20;2.60;;;1.13;;
78368;SDS011;71113;43.092;-89.268;2023-12-28T13:01:47;1.30;;;0.90;;
78368;SDS011;71113;43.092;-89.268;2023-12-28T13:04:17;1.55;;;1.00;;
78368;SDS011;71113;43.092;-89.268;2023-12-28T13:06:43;2.03;;;1.10;;
78368;SDS011;71113;43.092;-89.268;2023-12-28T13:09:09;2.97;;;1.10;;
78368;SDS011;71113;43.092;-89.268;2023-12-28T13:11:36;1.38;;;0.73;;
78368;SDS011;71113;43.092;-89.268;2023-12-28T13:14:03;1.55;;;1.00;;
78368;SDS011;71113;43.092;-89.268;2023-12-28T13:16:29;1.15;;;0.82;;
78368;SDS011;71113;43.092;-89.268;2023-12-28T13:19:19;1.85;;;1.08;;
78368;SDS011;71113;43.092;-89.268;2023-12-28T13:21:46;1.73;;;1.00;;
78368;SDS011;71113;43.092;-89.268;2023-12-28T13:24:11;1.30;;;0.80;;
78368;SDS011;71113;43.092;-89.268;2023-12-28T13:26:37;1.45;;;0.85;;
78368;SDS011;71113;43.092;-89.268;2023-12-28T13:29:03;1.98;;;1.17;;
78368;SDS011;71113;43.092;-89.268;2023-12-28T13:31:29;2.10;;;1.10;;
78368;SDS011;71113;43.092;-89.268;2023-12-28T13:33:55;2.50;;;0.98;;
78368;SDS011;71113;43.092;-89.268;2023-12-28T13:36:21;1.98;;;1.10;;
78368;SDS011;71113;43.092;-89.268;2023-12-28T13:38:47;1.30;;;0.88;;
78368;SDS011;71113;43.092;-89.268;2023-12-28T13:41:13;2.35;;;1.02;;
78368;SDS011;71113;43.092;-89.268;2023-12-28T13:43:39;1.60;;;0.98;;
78368;SDS011;71113;43.092;-89.268;2023-12-28T13:46:04;1.73;;;1.00;;
78368;SDS011;71113;43.092;-89.268;2023-12-28T13:48:30;1.38;;;0.82;;
78368;SDS011;71113;43.092;-89.268;2023-12-28T13:50:56;2.03;;;1.00;;
78368;SDS011;71113;43.092;-89.268;2023-12-28T13:53:22;2.78;;;1.10;;
78368;SDS011;71113;43.092;-89.268;2023-12-28T13:55:48;1.33;;;1.10;;
78368;SDS011;71113;43.092;-89.268;2023-12-28T13:58:14;1.65;;;0.93;;
78368;SDS011;71113;43.092;-89.268;2023-12-28T14:00:40;1.38;;;0.77;;
78368;SDS011;71113;43.092;-89.268;2023-12-28T14:03:05;1.27;;;1.10;;
78368;SDS011;71113;43.092;-89.268;2023-12-28T14:05:31;1.15;;;0.82;;
78368;SDS011;71113;43.092;-89.268;2023-12-28T14:07:57;1.48;;;0.93;;
78368;SDS011;71113;43.092;-89.268;2023-12-28T14:10:23;1.73;;;1.08;;
78368;SDS011;71113;43.092;-89.268;2023-12-28T14:12:49;1.92;;;1.02;;
78368;SDS011;71113;43.092;-89.268;2023-12-28T14:15:15;1.48;;;0.88;;
78368;SDS011;71113;43.092;-89.268;2023-12-28T14:17:41;2.78;;;1.10;;
78368;SDS011;71113;43.092;-89.268;2023-12-28T14:20:08;1.63;;;1.00;;
78368;SDS011;71113;43.092;-89.268;2023-12-28T14:22:37;1.40;;;0.80;;
78368;SDS011;71113;43.092;-89.268;2023-12-28T14:25:06;0.57;;;0.57;;